createdAt,value
2022-11-15T00:01:19.784Z,98631.81
2022-11-15T00:04:24.015Z,98719.06
2022-11-15T00:07:54.167Z,98720.59
2022-11-15T00:10:56.632Z,98501.09
2022-11-15T00:14:03.454Z,98516.75
2022-11-15T00:17:07.641Z,98524.00
2022-11-15T00:20:12.532Z,98651.25
2022-11-15T00:23:17.510Z,98687.06
2022-11-15T00:26:21.827Z,98645.66
2022-11-15T00:29:26.107Z,98503.19
2022-11-15T00:32:33.574Z,98650.81
2022-11-15T00:35:38.011Z,98598.66
2022-11-15T00:38:42.173Z,98608.25
2022-11-15T00:41:46.529Z,98705.59
2022-11-15T00:44:50.710Z,98684.91
2022-11-15T00:47:55.121Z,98531.81
2022-11-15T00:50:59.364Z,98486.41
2022-11-15T00:54:03.854Z,98636.00
2022-11-15T00:57:08.204Z,98608.53
2022-11-15T01:00:12.899Z,98644.44
2022-11-15T01:03:17.265Z,98658.56
2022-11-15T01:06:21.360Z,98649.75
2022-11-15T01:09:25.513Z,98474.22
2022-11-15T01:12:29.710Z,98660.47
2022-11-15T01:15:34.233Z,98471.69
2022-11-15T01:18:38.976Z,98563.16
2022-11-15T01:21:43.092Z,98460.72
2022-11-15T01:24:47.386Z,98663.81
2022-11-15T01:27:51.761Z,98630.28
2022-11-15T01:30:59.602Z,98464.53
2022-11-15T01:34:03.767Z,98479.94
2022-11-15T01:37:08.286Z,98636.78
2022-11-15T01:40:12.252Z,98609.75
2022-11-15T01:43:25.306Z,98626.66
2022-11-15T01:46:36.111Z,98443.63
2022-11-15T01:49:48.121Z,98459.13
2022-11-15T01:52:52.114Z,98626.88
2022-11-15T01:55:57.046Z,98603.84
2022-11-15T01:59:05.507Z,98583.75
2022-11-15T02:02:09.991Z,98476.00
2022-11-15T02:05:14.038Z,98426.72
2022-11-15T02:08:21.014Z,98402.44
2022-11-15T02:11:25.658Z,98595.38
2022-11-15T02:14:32.072Z,98600.00
2022-11-15T02:17:48.825Z,98405.66
2022-11-15T02:21:14.392Z,98605.50
2022-11-15T02:24:50.559Z,98617.56
2022-11-15T02:28:29.988Z,98632.41
2022-11-15T02:31:55.738Z,98603.91
2022-11-15T02:35:08.189Z,98556.16
2022-11-15T02:38:29.643Z,98399.72
2022-11-15T02:41:42.220Z,98628.16
2022-11-15T02:44:47.833Z,98596.66
2022-11-15T02:47:55.793Z,98597.38
2022-11-15T02:51:01.536Z,98526.69
2022-11-15T02:54:05.776Z,98588.59
2022-11-15T02:57:19.814Z,98505.69
2022-11-15T03:00:24.214Z,98613.03
2022-11-15T03:03:55.113Z,98585.13
2022-11-15T03:07:08.793Z,98520.91
2022-11-15T03:10:26.705Z,98583.16
2022-11-15T03:13:40.747Z,98581.28
2022-11-15T03:17:11.070Z,98567.50
2022-11-15T03:20:18.184Z,98381.47
2022-11-15T03:23:23.376Z,98371.66
2022-11-15T03:26:29.206Z,98567.00
2022-11-15T03:29:40.964Z,98400.16
2022-11-15T03:32:51.065Z,98505.44
2022-11-15T03:35:55.753Z,98585.91
2022-11-15T03:39:03.072Z,98539.19
2022-11-15T03:42:23.067Z,98373.66
2022-11-15T03:45:33.565Z,98518.97
2022-11-15T03:48:54.766Z,98556.94
2022-11-15T03:52:00.271Z,98580.19
2022-11-15T03:55:07.037Z,98564.69
2022-11-15T03:58:11.401Z,98550.88
2022-11-15T04:01:15.746Z,98551.44
2022-11-15T04:04:20.280Z,98540.88
2022-11-15T04:07:24.969Z,98530.28
2022-11-15T04:10:29.465Z,98530.28
2022-11-15T04:13:33.936Z,98519.94
2022-11-15T04:16:43.518Z,98306.69
2022-11-15T04:20:06.442Z,98353.91
2022-11-15T04:23:33.614Z,98312.69
2022-11-15T04:26:38.148Z,98521.16
2022-11-15T04:29:42.189Z,98345.06
2022-11-15T04:32:46.658Z,98479.72
2022-11-15T04:36:09.497Z,98428.38
2022-11-15T04:39:13.791Z,98516.66
2022-11-15T04:42:17.907Z,98428.81
2022-11-15T04:45:22.099Z,98532.31
2022-11-15T04:48:26.247Z,98494.84
2022-11-15T04:51:30.615Z,98401.59
2022-11-15T04:54:35.258Z,98501.81
2022-11-15T04:57:39.552Z,98453.69
2022-11-15T05:00:43.747Z,98453.88
2022-11-15T05:04:06.919Z,98405.19
2022-11-15T05:07:11.181Z,98277.91
2022-11-15T05:10:15.438Z,98500.41
2022-11-15T05:13:19.629Z,98481.22
2022-11-15T05:16:24.075Z,98532.66
2022-11-15T05:19:28.332Z,98470.97
2022-11-15T05:22:32.495Z,98453.25
2022-11-15T05:25:37.230Z,98437.84
2022-11-15T05:28:41.657Z,98486.13
2022-11-15T05:31:45.584Z,98306.53
2022-11-15T05:34:50.008Z,98482.53
2022-11-15T05:37:54.120Z,98472.91
2022-11-15T05:40:59.026Z,98427.88
2022-11-15T05:44:06.709Z,98492.03
2022-11-15T05:47:18.067Z,98493.53
2022-11-15T05:50:22.441Z,98407.22
2022-11-15T05:53:27.077Z,98481.69
2022-11-15T05:56:31.644Z,98450.69
2022-11-15T05:59:37.946Z,98479.16
2022-11-15T06:02:43.446Z,98441.22
2022-11-15T06:05:47.878Z,98269.16
2022-11-15T06:08:52.059Z,98468.09
2022-11-15T06:11:56.360Z,98409.81
2022-11-15T06:15:00.745Z,98472.94
2022-11-15T06:18:05.071Z,98474.97
2022-11-15T06:21:09.109Z,98273.56
2022-11-15T06:24:13.841Z,98260.31
2022-11-15T06:27:18.256Z,98267.34
2022-11-15T06:30:23.796Z,98311.84
2022-11-15T06:33:28.055Z,98444.47
2022-11-15T06:36:34.868Z,98435.91
2022-11-15T06:39:38.999Z,98443.88
2022-11-15T06:42:43.248Z,98284.97
2022-11-15T06:45:47.582Z,98490.31
2022-11-15T06:48:53.135Z,98428.53
2022-11-15T06:51:57.612Z,98310.88
2022-11-15T06:55:01.984Z,98364.13
2022-11-15T06:58:06.181Z,98451.38
2022-11-15T07:01:12.835Z,98372.72
2022-11-15T07:04:17.219Z,98373.94
2022-11-15T07:07:21.955Z,98440.50
2022-11-15T07:10:26.908Z,98484.00
2022-11-15T07:13:35.745Z,98422.63
2022-11-15T07:16:40.223Z,98449.84
2022-11-15T07:19:44.450Z,98479.78
2022-11-15T07:22:48.831Z,98279.72
2022-11-15T07:25:53.467Z,98434.91
2022-11-15T07:28:58.322Z,98245.75
2022-11-15T07:32:03.134Z,98437.16
2022-11-15T07:35:07.576Z,98402.50
2022-11-15T07:38:11.589Z,98462.13
2022-11-15T07:41:16.172Z,98433.97
2022-11-15T07:44:20.460Z,98425.13
2022-11-15T07:47:24.852Z,98432.69
2022-11-15T07:50:32.133Z,98352.44
2022-11-15T07:53:36.254Z,98420.38
2022-11-15T07:56:40.431Z,98421.19
2022-11-15T07:59:44.906Z,98364.09
2022-11-15T08:02:49.446Z,98258.75
2022-11-15T08:05:53.913Z,98302.22
2022-11-15T08:08:58.007Z,98409.53
2022-11-15T08:12:02.507Z,98352.41
2022-11-15T08:15:07.397Z,98396.66
2022-11-15T08:18:14.590Z,98391.53
2022-11-15T08:21:21.086Z,98402.03
2022-11-15T08:24:25.679Z,98210.63
2022-11-15T08:27:30.092Z,98382.03
2022-11-15T08:30:38.124Z,98194.84
2022-11-15T08:33:42.485Z,98344.78
2022-11-15T08:36:47.710Z,98391.44
2022-11-15T08:39:51.981Z,98227.13
2022-11-15T08:42:56.389Z,98369.22
2022-11-15T08:46:00.803Z,98190.91
2022-11-15T08:49:05.294Z,98189.91
2022-11-15T08:52:09.359Z,98397.66
2022-11-15T08:55:14.657Z,98354.38
2022-11-15T08:58:20.065Z,98399.19
2022-11-15T09:01:25.528Z,98371.41
2022-11-15T09:04:30.235Z,98356.56
2022-11-15T09:07:34.454Z,98396.22
2022-11-15T09:10:38.510Z,98188.28
2022-11-15T09:13:43.357Z,98348.50
2022-11-15T09:16:47.532Z,98401.50
2022-11-15T09:19:53.186Z,98062.31
2022-11-15T09:23:02.254Z,98149.22
2022-11-15T09:26:07.249Z,98197.13
2022-11-15T09:29:11.312Z,98161.84
2022-11-15T09:32:15.982Z,98258.09
2022-11-15T09:35:20.390Z,98335.31
2022-11-15T09:38:24.684Z,98260.72
2022-11-15T09:41:40.942Z,98343.03
2022-11-15T09:45:08.421Z,98337.19
2022-11-15T09:48:37.385Z,98331.31
2022-11-15T09:51:51.646Z,98322.16
2022-11-15T09:54:58.183Z,98320.63
2022-11-15T09:58:16.845Z,98277.31
2022-11-15T10:01:13.232Z,98247.13
2022-11-15T10:04:05.521Z,98262.28
2022-11-15T10:07:04.218Z,98311.38
2022-11-15T10:10:04.376Z,98305.69
2022-11-15T10:12:52.725Z,98114.06
2022-11-15T10:15:38.536Z,98144.97
2022-11-15T10:18:49.181Z,98146.81
2022-11-15T10:21:47.738Z,98287.50
2022-11-15T10:24:38.514Z,98250.56
2022-11-15T10:27:24.636Z,98283.66
2022-11-15T10:30:16.626Z,98127.03
2022-11-15T10:33:19.802Z,98117.91
2022-11-15T10:36:14.259Z,98274.31
2022-11-15T10:39:00.105Z,98105.91
2022-11-15T10:41:45.512Z,98299.47
2022-11-15T10:44:32.163Z,98225.97
2022-11-15T10:47:37.672Z,98074.56
2022-11-15T10:50:33.459Z,98265.69
2022-11-15T10:56:29.411Z,98159.84
2022-11-15T10:59:22.002Z,98280.75
2022-11-15T11:02:35.296Z,98270.09
2022-11-15T11:05:29.119Z,98265.31
2022-11-15T11:08:14.376Z,98151.75
2022-11-15T11:11:03.484Z,98227.41
2022-11-15T11:13:49.347Z,98024.75
2022-11-15T11:16:43.463Z,98210.66
2022-11-15T11:19:47.966Z,98203.50
2022-11-15T11:22:36.420Z,98196.44
2022-11-15T11:25:56.595Z,98142.50
2022-11-15T11:28:47.607Z,98204.91
2022-11-15T11:31:54.482Z,98174.34
2022-11-15T11:34:55.670Z,98159.69
2022-11-15T11:37:50.337Z,98104.25
2022-11-15T11:40:50.245Z,98163.09
2022-11-15T11:43:57.258Z,98201.50
2022-11-15T11:46:50.855Z,98161.91
2022-11-15T11:49:47.087Z,97969.22
2022-11-15T11:52:40.972Z,97966.59
2022-11-15T11:55:32.788Z,98075.78
2022-11-15T11:58:36.233Z,98149.31
2022-11-15T12:01:30.275Z,98028.66
2022-11-15T12:04:15.604Z,98132.44
2022-11-15T12:07:14.907Z,98027.59
2022-11-15T12:10:29.707Z,98123.91
2022-11-15T12:13:26.625Z,98122.22
2022-11-15T12:16:25.801Z,98122.00
2022-11-15T12:19:11.807Z,98094.03
2022-11-15T12:22:27.807Z,98100.56
2022-11-15T12:25:40.315Z,97995.44
2022-11-15T12:29:06.814Z,98094.63
2022-11-15T12:32:01.052Z,98041.28
2022-11-15T12:34:49.163Z,98110.50
2022-11-15T12:37:38.841Z,98118.47
2022-11-15T12:40:31.047Z,98092.31
2022-11-15T12:43:16.737Z,98088.25
2022-11-15T12:46:05.618Z,98082.41
2022-11-15T12:48:55.996Z,98030.78
2022-11-15T12:51:44.880Z,98090.03
2022-11-15T12:54:33.341Z,98050.84
2022-11-15T12:57:18.624Z,98106.06
2022-11-15T13:00:16.410Z,98083.38
2022-11-15T13:03:20.116Z,97902.34
2022-11-15T13:06:08.337Z,97986.47
2022-11-15T13:08:53.918Z,98093.63
2022-11-15T13:11:47.769Z,98064.84
2022-11-15T13:14:47.065Z,98081.59
2022-11-15T13:17:34.846Z,97995.41
2022-11-15T13:20:24.931Z,98047.09
2022-11-15T13:23:14.707Z,98061.84
2022-11-15T13:26:17.724Z,98065.81
2022-11-15T13:29:04.562Z,98015.00
2022-11-15T13:31:50.240Z,97841.31
2022-11-15T13:34:53.327Z,97866.84
2022-11-15T13:37:40.925Z,97829.16
2022-11-15T13:40:36.309Z,97963.22
2022-11-15T13:43:36.458Z,97881.63
2022-11-15T13:46:30.946Z,98032.22
2022-11-15T13:49:16.590Z,97846.22
2022-11-15T13:52:07.021Z,98034.84
2022-11-15T13:55:09.226Z,97830.63
2022-11-15T13:57:59.293Z,98024.75
2022-11-15T14:00:48.270Z,98005.97
2022-11-15T14:03:40.075Z,97972.34
2022-11-15T14:06:28.332Z,97998.50
2022-11-15T14:09:41.031Z,97825.91
2022-11-15T14:12:26.624Z,98000.28
2022-11-15T14:15:37.757Z,97996.63
2022-11-15T14:18:43.969Z,98004.19
2022-11-15T14:21:30.354Z,97939.25
2022-11-15T14:24:21.336Z,97906.69
2022-11-15T14:27:29.319Z,97975.72
2022-11-15T14:30:18.603Z,98004.75
2022-11-15T14:33:19.964Z,97991.34
2022-11-15T14:36:19.083Z,97999.81
2022-11-15T14:39:06.467Z,97817.91
2022-11-15T14:41:51.830Z,97962.59
2022-11-15T14:44:38.203Z,97990.03
2022-11-15T14:47:25.847Z,97843.16
2022-11-15T14:50:15.097Z,97984.53
2022-11-15T14:53:00.949Z,97793.00
2022-11-15T14:55:46.645Z,97933.44
2022-11-15T14:58:32.226Z,97990.22
2022-11-15T15:01:27.625Z,97988.97
2022-11-15T15:04:13.259Z,97976.84
2022-11-15T15:06:58.717Z,97983.41
2022-11-15T15:09:44.991Z,97785.75
2022-11-15T17:20:46.261Z,97910.81
2022-11-15T17:23:33.570Z,97909.16
2022-11-15T17:26:37.785Z,97896.69
2022-11-15T17:29:25.863Z,69653.78
2022-11-15T17:32:12.457Z,69653.78
2022-11-15T17:34:57.851Z,69653.78
2022-11-15T17:37:44.189Z,69653.78
2022-11-15T17:40:29.904Z,69653.78
2022-11-15T17:43:16.840Z,69653.78
2022-11-15T17:46:06.712Z,69653.78
2022-11-15T17:48:52.177Z,69653.78
2022-11-15T17:51:37.643Z,69653.78
2022-11-15T17:54:22.958Z,69653.78
2022-11-15T17:57:08.305Z,69653.78
2022-11-15T17:59:53.873Z,69653.78
2022-11-15T18:02:39.373Z,69653.78
2022-11-15T18:05:24.670Z,69653.78
2022-11-15T18:08:15.428Z,69653.78
2022-11-15T18:11:08.355Z,69653.78
2022-11-15T18:13:57.066Z,69653.78
2022-11-15T18:16:43.002Z,69653.78
2022-11-15T18:19:28.696Z,69653.78
2022-11-15T18:22:14.135Z,69653.78
2022-11-15T18:24:59.506Z,69653.78
2022-11-15T18:27:45.159Z,69653.78
2022-11-15T18:30:30.998Z,69653.78
2022-11-15T18:33:16.553Z,69653.78
2022-11-15T18:36:04.417Z,69653.78
2022-11-15T18:38:57.792Z,69653.78
2022-11-15T18:41:46.577Z,69653.78
2022-11-15T18:44:32.473Z,69653.78
2022-11-15T18:47:18.021Z,69653.78
2022-11-15T18:50:03.617Z,69653.78
2022-11-15T18:52:49.045Z,69653.78
2022-11-15T18:55:34.380Z,69653.78
2022-11-15T18:58:19.766Z,69653.78
2022-11-15T19:01:07.628Z,69653.78
2022-11-15T19:03:56.131Z,69653.78
2022-11-15T19:06:44.929Z,69653.78
2022-11-15T19:09:32.805Z,69653.78
2022-11-15T19:12:18.513Z,69653.78
2022-11-15T19:15:09.833Z,69653.78
2022-11-15T19:17:55.553Z,69653.78
2022-11-15T19:20:41.591Z,69653.78
2022-11-15T19:23:27.296Z,69653.78
2022-11-15T19:26:14.214Z,69653.78
2022-11-15T19:29:01.917Z,69653.78
2022-11-15T19:31:48.732Z,69653.78
2022-11-15T19:34:34.603Z,69653.78
2022-11-15T19:37:19.962Z,69653.78
2022-11-15T19:40:06.483Z,69653.78
2022-11-15T19:42:51.645Z,69653.78
2022-11-15T19:45:37.277Z,69653.78
2022-11-15T19:48:23.061Z,69653.78
2022-11-15T19:51:30.487Z,69653.78
2022-11-15T19:54:19.072Z,69653.78
2022-11-15T19:57:07.393Z,69653.78
2022-11-15T19:59:52.893Z,69653.78
2022-11-15T20:02:38.297Z,69653.78
2022-11-15T20:05:24.303Z,69653.78
2022-11-15T20:08:09.978Z,69653.78
2022-11-15T20:10:55.494Z,69653.78
2022-11-15T20:13:42.172Z,69653.78
2022-11-15T20:16:28.409Z,69653.78
2022-11-15T20:19:15.897Z,69653.78
2022-11-15T20:22:01.347Z,69653.78
2022-11-15T20:24:46.552Z,69653.78
2022-11-15T20:27:32.274Z,69653.78
2022-11-15T20:30:18.129Z,69653.78
2022-11-15T20:33:04.330Z,69653.78
2022-11-15T20:35:50.311Z,69653.78
2022-11-15T20:38:35.837Z,69653.78
2022-11-15T20:41:21.385Z,69653.78
2022-11-15T20:44:06.687Z,69653.78
2022-11-15T20:46:52.060Z,69653.78
2022-11-15T20:49:37.431Z,69653.78
2022-11-15T20:52:22.737Z,69653.78
2022-11-15T20:55:08.827Z,69653.78
2022-11-15T20:57:54.741Z,69653.78
2022-11-15T21:00:42.024Z,69653.78
2022-11-15T21:03:28.386Z,69653.78
2022-11-15T21:06:24.611Z,69653.78
2022-11-15T21:09:39.023Z,69653.78
2022-11-15T21:12:25.254Z,69653.78
2022-11-15T21:15:10.721Z,69653.78
2022-11-15T21:17:56.117Z,69653.78
2022-11-15T21:20:41.785Z,69653.78
2022-11-15T21:23:27.359Z,69653.78
2022-11-15T21:26:12.668Z,69653.78
2022-11-15T21:28:58.027Z,69653.78
2022-11-15T21:31:45.146Z,69653.78
2022-11-15T21:34:30.637Z,69653.78
2022-11-15T21:37:16.480Z,69653.78
2022-11-15T21:40:01.746Z,69653.78
2022-11-15T21:42:47.149Z,69653.78
2022-11-15T21:45:32.613Z,69653.78
2022-11-15T21:48:19.115Z,69653.78
2022-11-15T21:51:07.247Z,69653.78
2022-11-15T21:53:56.561Z,69653.78
2022-11-15T21:56:43.252Z,69653.78
2022-11-15T21:59:28.808Z,69653.78
2022-11-15T22:02:14.468Z,69653.78
2022-11-15T22:08:03.097Z,69653.78
2022-11-15T22:10:49.831Z,69653.78
2022-11-15T22:13:36.141Z,69653.78
2022-11-15T22:16:21.741Z,69653.78
2022-11-15T22:19:07.367Z,69653.78
2022-11-15T22:21:54.168Z,69653.78
2022-11-15T22:24:39.514Z,69653.78
2022-11-15T22:27:24.700Z,69653.78
2022-11-15T22:30:10.922Z,69653.78
2022-11-15T22:32:56.443Z,69653.78
2022-11-15T22:35:42.374Z,69653.78
2022-11-15T22:38:28.593Z,69653.78
2022-11-15T22:41:14.315Z,69653.78
2022-11-15T22:43:59.791Z,69653.78
2022-11-15T22:46:45.362Z,69653.78
2022-11-15T22:49:30.682Z,69653.78
2022-11-15T22:52:16.154Z,69653.78
2022-11-15T22:55:01.574Z,69653.78
2022-11-15T22:57:47.066Z,69653.78
2022-11-15T23:00:32.545Z,69653.78
2022-11-15T23:03:19.338Z,69653.78
2022-11-15T23:06:06.687Z,69653.78
2022-11-15T23:08:52.524Z,69653.78
2022-11-15T23:11:56.455Z,69653.78
2022-11-15T23:14:41.817Z,69653.78
2022-11-15T23:17:27.313Z,69653.78
2022-11-15T23:20:41.446Z,69653.78
2022-11-15T23:23:18.307Z,69653.78
2022-11-15T23:26:03.754Z,69653.78
2022-11-15T23:28:49.119Z,69653.78
2022-11-15T23:32:01.155Z,69653.78
2022-11-15T23:34:47.388Z,69653.78
2022-11-15T23:37:33.586Z,69653.78
2022-11-15T23:40:19.088Z,69653.78
2022-11-15T23:43:04.640Z,69653.78
2022-11-15T23:45:49.937Z,69653.78
2022-11-15T23:48:35.722Z,69653.78
2022-11-15T23:51:21.750Z,69653.78
2022-11-15T23:54:07.504Z,69653.78
2022-11-15T23:56:52.889Z,69653.78
2022-11-15T23:59:39.819Z,69653.78
